HAAB/ADD METAR and TAF weather

Enter ICAO airport designator
Station Type Date Time Source
HAAB METAR 2019/04/25 02:00 UTC NOAA

HAAB 250200Z 34004KT 9999 SCT026 13/11 Q1027


Station Type Date Time Source
HAAB Decoded METAR 2019/04/25 02:00 UTC NOAA

Addis Ababa, Ethiopia (HAAB) 08-59N 038-48E 2324M
Apr 24, 2019 - 10:00 PM EDT / 2019.04.25 0200 UTC
Wind: from the NNW (340 degrees) at 5 MPH (4 KT):0
Visibility: greater than 7 mile(s):0
Sky conditions: partly cloudy
Temperature: 55 F (13 C)
Dew Point: 51 F (11 C)
Relative Humidity: 87%
Pressure (altimeter): 30.33 in. Hg (1027 hPa)
ob: HAAB 250200Z 34004KT 9999 SCT026 13/11 Q1027
cycle: 2

Station Type Date Time Source
HAAB TAF 2019/04/24 18:35 UTC NOAA

TAF HAAB 241530Z 2418/2524 08010KT 9999 SCT028 BKN070
BECMG 2418/1423 09012KT 9000 -SHRA BKN025
BECMG 2501/2504 08011KT BKN030

Example: see airport list